Burlingame, CA

4:45 PM PDT on September 19, 2014 (GMT -0700)
Burlingame | Change Station
CLOSE
Current Station
Personal Weather Station
Location: Burlingame, CA
Elevation: 400 ft
Nearby Weather Stations

Elev 400 ft 37.58 °N, 122.39 °W | Updated 5 minutes ago

Partly Cloudy
Partly Cloudy
72.5 °F
Feels Like 77 °F
N
4.5
Wind Variable Wind from WSW
Gusts 4.5 mph

Today
High -- | Low -- °F
--% Chance of Precip.
Yesterday
High -- | Low -- °F
Precip. -- in
6:54 AM 7:10 PM
Waning Crescent, 16% visible
Pressure 29.86 in
Visibility 10.0 miles
Clouds Few 700 ft
Scattered Clouds 1500 ft
Heat Index 77 °F
Dew Point 48 °F
Humidity 42%
Rainfall -999.00 in
Snow Depth 0 in , 0 in , 0 in
UV 3 out of 12
Pollen 4.70 out of 12
PM2.5 Good
Flu Activity Not available.
METAR KSFO 192256Z 27016KT 10SM FEW007 SCT015 22/17 A2986 RMK AO2 SLP112 T02220172 $

More Conditions Fewer Conditions

Pressure 29.86 in
Visibility 10.0 miles
Clouds Few 700 ft
Scattered Clouds 1500 ft
Heat Index 77 °F
Dew Point 48 °F
Humidity 42%
Rainfall -999.00 in
Snow Depth 0 in , 0 in , 0 in
UV 3 out of 12
Pollen 4.70 out of 12
PM2.5 Good
Flu Activity Not available.
METAR KSFO 192256Z 27016KT 10SM FEW007 SCT015 22/17 A2986 RMK AO2 SLP112 T02220172 $

More Conditions Fewer Conditions

10-Day Weather Forecast

Almanac

Astronomy

Sep. 19, 2014 Rise Set
Actual Time 6:54 AM PDT 7:10 PM PDT
Civil Twilight 6:28 AM PDT 7:37 PM PDT
Nautical Twilight 5:58 AM PDT 8:07 PM PDT
Astronomical Twilight 5:26 AM PDT 8:38 PM PDT
Moon 2:48 AM PDT 4:39 PM PDT
Length of Visible Light 13h 08m
Length of Day
12h 16m
Tomorrow will be 2m 23s shorter.
Waning Crescent, 16% of the Moon is Illuminated
Today
Waning Crescent
Sep 24
New
Oct 1
First Quarter
Oct 8
Full
Oct 15
Last Quarter

Today's Extremes

State Highs State Lows

Community

WunderPhotos

Upload Photos

1,754,730 photos uploaded!

Nearby

Air Quality

  Air Quality AQ Index Pollutant
Yesterday Good
OZONE
Yesterday Good
PM2.5
Current Good
PM2.5
Friday Good
OZONE
Saturday Moderate
PM2.5
Sunday Moderate
PM2.5
Monday Good
PM2.5
Tuesday Good
PM2.5
Wednesday Good
OZONE

Snow Depth

Station Depth Elevation
Tahoe City Cross 0 in 6750 ft
Spratt Creek 0 in 6200 ft
Leavitt Meadows 0 in 7200 ft
Echo Peak 0 in 7800 ft
Burnside Lake 0 in 8139 ft

Earthquake Activity

City Distance Mag. Time & Date
Livermore, California 35 miles 2.6 3:37 AM PDT
2014-09-19
The Geysers, California 84 miles 2.5 11:29 PM PDT
2014-09-17
Cobb, California 86 miles 2.7 1:23 PM PDT
2014-09-16
Minimum magnitude displayed is 2.5.

Coastal Water Temperatures

Place Temperature
No Stations Reporting

Nearby Weather Stations